createdAt,value
2019-02-27T00:01:41.893Z,18.67
2019-02-27T00:03:48.688Z,18.45
2019-02-27T00:05:55.357Z,17.85
2019-02-27T00:08:02.089Z,13.28
2019-02-27T00:10:09.579Z,18.82
2019-02-27T00:12:17.000Z,13.28
2019-02-27T00:14:24.617Z,14.70
2019-02-27T00:16:31.296Z,18.75
2019-02-27T00:18:38.236Z,15.25
2019-02-27T00:20:44.955Z,15.98
2019-02-27T00:22:51.703Z,13.95
2019-02-27T00:24:58.383Z,16.82
2019-02-27T00:27:05.044Z,12.90
2019-02-27T00:29:11.721Z,10.78
2019-02-27T00:31:18.375Z,10.82
2019-02-27T00:33:26.250Z,16.90
2019-02-27T00:35:33.415Z,13.78
2019-02-27T00:37:40.089Z,21.07
2019-02-27T00:39:46.748Z,17.48
2019-02-27T00:41:53.429Z,15.20
2019-02-27T00:44:01.339Z,11.68
2019-02-27T00:46:10.761Z,16.15
2019-02-27T00:48:16.991Z,15.28
2019-02-27T00:50:23.663Z,16.67
2019-02-27T00:52:30.316Z,15.70
2019-02-27T00:54:37.008Z,17.48
2019-02-27T00:56:44.997Z,21.40
2019-02-27T00:58:52.026Z,18.30
2019-02-27T01:00:58.712Z,12.82
2019-02-27T01:03:05.471Z,17.95
2019-02-27T01:05:12.504Z,17.73
2019-02-27T01:07:20.644Z,16.30
2019-02-27T01:09:27.619Z,19.17
2019-02-27T01:11:34.281Z,17.45
2019-02-27T01:13:41.050Z,12.70
2019-02-27T01:15:47.720Z,16.40
2019-02-27T01:17:57.443Z,10.78
2019-02-27T01:20:05.452Z,12.33
2019-02-27T01:22:12.117Z,12.90
2019-02-27T01:24:18.777Z,16.97
2019-02-27T01:26:30.557Z,11.97
2019-02-27T01:28:33.904Z,11.55
2019-02-27T01:30:40.628Z,15.18
2019-02-27T01:32:47.389Z,14.25
2019-02-27T01:34:54.044Z,16.87
2019-02-27T01:37:01.713Z,12.03
2019-02-27T01:39:11.365Z,14.80
2019-02-27T01:41:17.718Z,12.60
2019-02-27T01:43:24.384Z,9.73
2019-02-27T01:45:31.067Z,16.23
2019-02-27T01:47:37.806Z,15.55
2019-02-27T01:49:48.914Z,11.10
2019-02-27T01:51:53.163Z,11.90
2019-02-27T01:53:59.856Z,11.65
2019-02-27T01:56:06.511Z,12.50
2019-02-27T01:58:13.280Z,13.60
2019-02-27T02:00:23.034Z,13.50
2019-02-27T02:02:28.667Z,12.35
2019-02-27T02:04:35.356Z,11.20
2019-02-27T02:06:42.028Z,15.25
2019-02-27T02:08:48.868Z,8.03
2019-02-27T02:11:00.929Z,12.33
2019-02-27T02:13:14.776Z,13.90
2019-02-27T02:15:43.518Z,11.83
2019-02-27T02:18:11.909Z,11.93
2019-02-27T02:20:54.670Z,13.65
2019-02-27T02:23:35.332Z,14.18
2019-02-27T02:25:55.215Z,11.80
2019-02-27T02:28:37.637Z,9.45
2019-02-27T02:31:05.449Z,14.33
2019-02-27T02:33:31.055Z,9.30
2019-02-27T02:35:58.499Z,14.05
2019-02-27T02:38:23.959Z,14.70
2019-02-27T02:40:58.521Z,13.28
2019-02-27T02:43:42.024Z,8.58
2019-02-27T02:46:11.976Z,12.20
2019-02-27T02:48:34.940Z,11.12
2019-02-27T02:51:20.438Z,9.00
2019-02-27T02:54:08.984Z,12.35
2019-02-27T02:56:40.808Z,9.35
2019-02-27T02:59:26.150Z,9.70
2019-02-27T03:01:38.328Z,15.80
2019-02-27T03:04:26.396Z,11.48
2019-02-27T03:06:46.168Z,10.63
2019-02-27T03:09:20.404Z,10.48
2019-02-27T03:11:40.255Z,11.93
2019-02-27T03:14:08.343Z,10.13
2019-02-27T03:16:53.474Z,12.53
2019-02-27T03:19:19.471Z,13.75
2019-02-27T03:21:39.130Z,12.07
2019-02-27T03:24:35.528Z,15.68
2019-02-27T03:26:55.196Z,12.73
2019-02-27T03:29:26.743Z,13.25
2019-02-27T03:31:37.827Z,13.22
2019-02-27T03:33:54.232Z,15.70
2019-02-27T03:36:35.955Z,10.72
2019-02-27T03:38:59.238Z,9.80
2019-02-27T03:41:38.743Z,11.12
2019-02-27T03:44:07.429Z,9.38
2019-02-27T03:46:40.748Z,9.13
2019-02-27T03:49:02.956Z,13.18
2019-02-27T03:51:28.334Z,6.87
2019-02-27T03:53:50.790Z,12.90
2019-02-27T03:56:31.300Z,8.58
2019-02-27T03:58:54.744Z,8.20
2019-02-27T04:01:55.235Z,10.53
2019-02-27T04:04:06.286Z,7.25
2019-02-27T04:06:31.777Z,9.23
2019-02-27T04:08:56.714Z,9.60
2019-02-27T04:11:06.047Z,9.45
2019-02-27T04:13:11.713Z,8.63
2019-02-27T04:15:18.926Z,10.88
2019-02-27T04:17:29.464Z,11.83
2019-02-27T04:19:39.397Z,8.33
2019-02-27T04:21:45.833Z,11.83
2019-02-27T04:23:52.488Z,8.05
2019-02-27T04:25:59.144Z,10.20
2019-02-27T04:28:05.865Z,12.00
2019-02-27T04:30:15.112Z,9.45
2019-02-27T04:32:20.958Z,7.97
2019-02-27T04:34:27.638Z,9.15
2019-02-27T04:36:34.314Z,10.58
2019-02-27T04:38:41.061Z,8.90
2019-02-27T04:40:47.748Z,7.47
2019-02-27T04:42:56.966Z,11.95
2019-02-27T04:45:02.856Z,11.15
2019-02-27T04:47:10.556Z,8.73
2019-02-27T04:49:17.225Z,13.62
2019-02-27T04:51:23.884Z,10.05
2019-02-27T04:53:32.020Z,11.45
2019-02-27T04:55:38.961Z,12.82
2019-02-27T04:57:45.632Z,11.53
2019-02-27T04:59:52.865Z,10.43
2019-02-27T05:01:59.581Z,12.15
2019-02-27T05:04:06.227Z,9.85
2019-02-27T05:06:14.521Z,14.93
2019-02-27T05:08:21.291Z,10.38
2019-02-27T05:10:27.953Z,9.10
2019-02-27T05:12:34.635Z,9.28
2019-02-27T05:14:41.379Z,10.10
2019-02-27T05:16:48.050Z,9.35
2019-02-27T05:18:54.740Z,11.97
2019-02-27T05:21:01.395Z,13.58
2019-02-27T05:23:08.060Z,14.95
2019-02-27T05:25:15.160Z,8.03
2019-02-27T05:27:21.817Z,11.40
2019-02-27T05:29:28.490Z,10.88
2019-02-27T05:31:35.175Z,12.33
2019-02-27T05:33:41.846Z,10.60
2019-02-27T05:35:48.592Z,14.28
2019-02-27T05:37:55.277Z,13.30
2019-02-27T05:40:01.941Z,13.08
2019-02-27T05:42:08.614Z,11.85
2019-02-27T05:44:15.384Z,10.70
2019-02-27T05:46:22.551Z,14.87
2019-02-27T05:48:29.211Z,18.15
2019-02-27T05:50:35.918Z,16.85
2019-02-27T05:52:42.582Z,17.92
2019-02-27T05:54:49.329Z,18.23
2019-02-27T05:56:56.015Z,17.73
2019-02-27T05:59:02.682Z,26.95
2019-02-27T06:01:09.424Z,16.65
2019-02-27T06:03:18.286Z,20.35
2019-02-27T06:05:24.482Z,24.18
2019-02-27T06:07:31.211Z,18.55
2019-02-27T06:09:37.906Z,23.65
2019-02-27T06:11:44.643Z,18.98
2019-02-27T06:13:51.322Z,23.87
2019-02-27T06:16:02.677Z,23.67
2019-02-27T06:18:06.331Z,20.92
2019-02-27T06:20:13.793Z,21.52
2019-02-27T06:22:20.471Z,18.17
2019-02-27T06:24:27.059Z,23.20
2019-02-27T06:26:33.798Z,19.45
2019-02-27T06:28:41.858Z,20.08
2019-02-27T06:30:48.527Z,21.33
2019-02-27T06:32:55.190Z,16.75
2019-02-27T06:35:01.883Z,18.37
2019-02-27T06:37:08.536Z,24.60
2019-02-27T06:39:15.269Z,17.55
2019-02-27T06:41:21.966Z,23.32
2019-02-27T06:43:28.635Z,26.45
2019-02-27T06:45:36.297Z,18.12
2019-02-27T06:47:42.984Z,20.72
2019-02-27T06:49:52.025Z,27.75
2019-02-27T06:51:58.000Z,25.43
2019-02-27T06:54:04.693Z,22.45
2019-02-27T06:56:12.422Z,41.55
2019-02-27T06:58:19.153Z,22.02
2019-02-27T07:00:26.443Z,20.52
2019-02-27T07:02:33.112Z,17.75
2019-02-27T07:04:40.277Z,19.62
2019-02-27T07:06:46.947Z,18.73
2019-02-27T07:08:53.680Z,19.25
2019-02-27T07:11:10.458Z,17.10
2019-02-27T07:13:08.738Z,21.23
2019-02-27T07:15:21.906Z,15.10
2019-02-27T07:17:31.444Z,18.60
2019-02-27T07:19:36.952Z,18.23
2019-02-27T07:21:43.620Z,15.23
2019-02-27T07:23:50.299Z,13.18
2019-02-27T07:25:57.003Z,15.08
2019-02-27T07:28:08.467Z,21.20
2019-02-27T07:30:20.411Z,13.83
2019-02-27T07:32:31.390Z,16.93
2019-02-27T07:34:35.535Z,19.67
2019-02-27T07:36:42.189Z,16.97
2019-02-27T07:38:48.906Z,19.07
2019-02-27T07:40:55.589Z,27.40
2019-02-27T07:43:03.298Z,17.95
2019-02-27T07:45:19.213Z,16.20
2019-02-27T07:47:25.873Z,22.60
2019-02-27T07:49:33.389Z,23.57
2019-02-27T07:51:40.160Z,18.00
2019-02-27T07:53:46.825Z,13.83
2019-02-27T07:55:53.482Z,20.50
2019-02-27T07:58:00.177Z,21.52
2019-02-27T08:00:15.195Z,19.00
2019-02-27T08:02:22.373Z,17.15
2019-02-27T08:04:29.075Z,12.78
2019-02-27T08:06:37.739Z,14.07
2019-02-27T08:08:44.185Z,17.02
2019-02-27T08:10:50.885Z,16.02
2019-02-27T08:12:57.586Z,16.15
2019-02-27T08:15:04.536Z,13.62
2019-02-27T08:17:17.621Z,16.65
2019-02-27T08:19:19.573Z,17.30
2019-02-27T08:21:26.239Z,15.28
2019-02-27T08:23:33.005Z,18.90
2019-02-27T08:25:39.652Z,11.85
2019-02-27T08:27:46.315Z,14.30
2019-02-27T08:29:54.143Z,15.55
2019-02-27T08:32:01.734Z,17.23
2019-02-27T08:34:08.477Z,12.53
2019-02-27T08:36:15.169Z,16.23
2019-02-27T08:38:23.504Z,16.25
2019-02-27T08:40:30.346Z,19.30
2019-02-27T08:42:40.274Z,15.78
2019-02-27T08:44:45.772Z,17.05
2019-02-27T08:46:53.396Z,20.32
2019-02-27T08:49:00.167Z,18.25
2019-02-27T08:51:08.761Z,18.12
2019-02-27T08:53:15.183Z,15.32
2019-02-27T08:55:24.589Z,13.30
2019-02-27T08:57:31.259Z,13.60
2019-02-27T08:59:39.888Z,17.02
2019-02-27T09:01:46.372Z,15.88
2019-02-27T09:03:53.095Z,12.90
2019-02-27T09:05:59.761Z,13.98
2019-02-27T09:08:07.286Z,17.60
2019-02-27T09:10:17.679Z,14.65
2019-02-27T09:12:24.425Z,12.43
2019-02-27T09:14:31.129Z,13.88
2019-02-27T09:16:37.789Z,12.30
2019-02-27T09:18:44.468Z,15.53
2019-02-27T09:20:53.368Z,16.07
2019-02-27T09:22:59.584Z,16.32
2019-02-27T09:25:08.661Z,15.03
2019-02-27T09:29:20.988Z,17.50
2019-02-27T09:31:27.713Z,10.43
2019-02-27T09:33:38.737Z,13.50
2019-02-27T09:35:42.922Z,11.83
2019-02-27T09:37:51.209Z,20.77
2019-02-27T09:39:57.970Z,16.23
2019-02-27T09:42:04.701Z,16.85
2019-02-27T09:44:11.366Z,23.65
2019-02-27T09:46:19.493Z,14.38
2019-02-27T09:48:26.418Z,20.48
2019-02-27T09:50:48.140Z,9.80
2019-02-27T09:52:53.561Z,9.65
2019-02-27T09:55:00.312Z,14.43
2019-02-27T09:57:07.012Z,9.08
2019-02-27T09:59:13.702Z,15.38
2019-02-27T10:01:20.724Z,10.08
2019-02-27T10:03:27.387Z,9.23
2019-02-27T10:05:36.739Z,11.15
2019-02-27T10:07:43.242Z,11.60
2019-02-27T10:09:49.978Z,11.97
2019-02-27T10:11:56.799Z,13.62
2019-02-27T10:14:03.477Z,14.15
2019-02-27T10:16:10.143Z,10.32
2019-02-27T10:18:18.984Z,10.28
2019-02-27T10:20:25.721Z,9.88
2019-02-27T10:22:32.384Z,6.50
2019-02-27T10:24:39.066Z,8.78
2019-02-27T10:26:45.745Z,9.20
2019-02-27T10:28:52.472Z,11.43
2019-02-27T10:30:59.243Z,8.53
2019-02-27T10:33:06.000Z,13.00
2019-02-27T10:35:14.854Z,10.30
2019-02-27T10:37:21.683Z,10.05
2019-02-27T10:39:28.631Z,9.25
2019-02-27T10:41:35.402Z,9.38
2019-02-27T10:43:42.090Z,10.43
2019-02-27T10:45:49.476Z,13.03
2019-02-27T10:47:56.294Z,13.22
2019-02-27T10:50:03.157Z,10.40
2019-02-27T10:52:09.870Z,7.62
2019-02-27T10:54:16.769Z,11.33
2019-02-27T10:56:24.232Z,7.30
2019-02-27T10:58:31.762Z,10.05
2019-02-27T11:00:38.460Z,10.53
2019-02-27T11:02:47.923Z,12.33
2019-02-27T11:04:53.675Z,8.35
2019-02-27T11:07:00.345Z,10.93
2019-02-27T11:09:11.407Z,9.73
2019-02-27T11:11:18.968Z,18.42
2019-02-27T11:13:25.702Z,13.62
2019-02-27T11:15:32.392Z,14.28
2019-02-27T11:17:40.181Z,17.17
2019-02-27T11:19:46.857Z,10.70
2019-02-27T11:21:53.746Z,8.85
2019-02-27T11:24:00.413Z,14.13
2019-02-27T11:26:07.066Z,14.85
2019-02-27T11:28:13.915Z,14.07
2019-02-27T11:30:24.672Z,16.50
2019-02-27T11:32:31.349Z,9.78
2019-02-27T11:34:38.032Z,10.65
2019-02-27T11:36:44.699Z,12.28
2019-02-27T11:38:51.406Z,12.35
2019-02-27T11:40:58.099Z,10.20
2019-02-27T11:43:06.949Z,21.37
2019-02-27T11:45:16.335Z,14.50
2019-02-27T11:47:23.079Z,9.23
2019-02-27T11:49:29.745Z,11.05
2019-02-27T11:51:36.526Z,11.05
2019-02-27T11:53:43.655Z,9.65
2019-02-27T11:55:50.341Z,13.60
2019-02-27T11:57:56.999Z,10.20
2019-02-27T12:00:04.363Z,8.40
2019-02-27T12:02:12.542Z,10.23
2019-02-27T12:04:19.999Z,14.43
2019-02-27T12:06:26.781Z,8.10
2019-02-27T12:08:34.981Z,10.13
2019-02-27T12:10:41.826Z,9.70
2019-02-27T12:12:48.611Z,11.15
2019-02-27T12:14:55.281Z,12.03
2019-02-27T12:17:01.963Z,11.57
2019-02-27T12:19:09.458Z,9.75
2019-02-27T12:21:16.328Z,14.07
2019-02-27T12:23:23.034Z,12.53
2019-02-27T12:25:30.218Z,10.30
2019-02-27T12:27:48.459Z,13.40
2019-02-27T12:29:45.666Z,13.90
2019-02-27T12:31:52.378Z,20.23
2019-02-27T12:34:02.475Z,15.13
2019-02-27T12:36:08.965Z,8.33
2019-02-27T12:38:15.844Z,7.45
2019-02-27T12:40:24.882Z,6.08
2019-02-27T12:42:37.336Z,10.48
2019-02-27T12:44:40.300Z,9.88
2019-02-27T12:46:47.015Z,11.90
2019-02-27T12:48:53.666Z,13.25
2019-02-27T12:51:03.468Z,9.78
2019-02-27T12:53:09.834Z,8.43
2019-02-27T12:55:17.306Z,9.90
2019-02-27T12:57:24.799Z,7.37
2019-02-27T12:59:33.053Z,6.97
2019-02-27T13:01:39.893Z,6.45
2019-02-27T13:03:46.599Z,9.35
2019-02-27T13:05:54.684Z,11.97
2019-02-27T13:08:01.421Z,8.28
2019-02-27T13:10:13.319Z,16.87
2019-02-27T13:12:20.040Z,10.13
2019-02-27T13:14:26.814Z,9.23
2019-02-27T13:16:33.491Z,8.90
2019-02-27T13:18:40.147Z,9.98
2019-02-27T13:20:46.883Z,11.90
2019-02-27T13:22:53.597Z,11.53
2019-02-27T13:25:00.406Z,8.78
2019-02-27T13:27:09.306Z,12.20
2019-02-27T13:29:15.490Z,9.55
2019-02-27T13:31:22.168Z,14.20
2019-02-27T13:33:28.832Z,12.37
2019-02-27T13:35:35.645Z,10.40
2019-02-27T13:37:44.566Z,6.85
2019-02-27T13:39:50.735Z,9.60
2019-02-27T13:41:57.435Z,11.90
2019-02-27T13:44:05.272Z,15.53
2019-02-27T13:46:11.953Z,9.45
2019-02-27T13:48:18.666Z,8.33
2019-02-27T13:50:26.854Z,11.40
2019-02-27T13:52:34.030Z,12.10
2019-02-27T13:54:40.712Z,8.10
2019-02-27T13:56:47.445Z,6.90
2019-02-27T13:58:54.120Z,8.73
2019-02-27T14:01:00.812Z,12.15
2019-02-27T14:03:12.180Z,11.75
2019-02-27T14:05:15.948Z,15.43
2019-02-27T14:07:24.171Z,12.75
2019-02-27T14:09:30.874Z,9.85
2019-02-27T14:11:37.626Z,9.65
2019-02-27T14:13:44.950Z,9.60
2019-02-27T14:15:51.626Z,6.37
2019-02-27T14:17:58.394Z,11.65
2019-02-27T14:20:10.734Z,9.03
2019-02-27T14:22:17.506Z,9.00
2019-02-27T14:24:24.173Z,10.38
2019-02-27T14:26:30.877Z,10.28
2019-02-27T14:28:37.531Z,9.38
2019-02-27T14:30:53.255Z,8.10
2019-02-27T14:32:59.967Z,12.80
2019-02-27T14:35:07.124Z,7.95
2019-02-27T14:37:16.245Z,10.80
2019-02-27T14:39:23.802Z,12.13
2019-02-27T14:41:31.031Z,7.78
2019-02-27T14:43:37.729Z,11.68
2019-02-27T14:45:44.554Z,10.50
2019-02-27T14:47:51.222Z,8.78
2019-02-27T14:49:59.305Z,9.80
2019-02-27T14:52:06.334Z,21.95
2019-02-27T14:54:13.008Z,9.85
2019-02-27T14:56:19.694Z,8.78
2019-02-27T14:58:26.400Z,12.37
2019-02-27T15:00:39.802Z,8.70
2019-02-27T15:02:44.001Z,10.63
2019-02-27T15:04:50.894Z,10.03
2019-02-27T15:06:57.572Z,14.25
2019-02-27T15:09:06.334Z,10.60
2019-02-27T15:11:14.945Z,12.07
2019-02-27T15:13:21.685Z,8.83
2019-02-27T15:15:32.512Z,8.90
2019-02-27T15:17:39.204Z,13.10
2019-02-27T15:19:45.866Z,9.50
2019-02-27T15:21:53.657Z,9.90
2019-02-27T15:24:02.141Z,10.05
2019-02-27T15:26:08.881Z,11.93
2019-02-27T15:28:15.676Z,18.70
2019-02-27T15:30:32.395Z,9.08
2019-02-27T15:32:39.189Z,13.65
2019-02-27T15:34:46.606Z,11.43
2019-02-27T15:36:53.313Z,12.37
2019-02-27T15:39:00.086Z,11.45
2019-02-27T15:41:08.260Z,10.77
2019-02-27T15:43:17.331Z,19.45
2019-02-27T15:45:26.328Z,14.03
2019-02-27T15:47:33.702Z,16.82
2019-02-27T15:49:40.891Z,16.85
2019-02-27T15:51:47.573Z,14.75
2019-02-27T15:53:54.235Z,14.35
2019-02-27T15:56:00.925Z,13.68
2019-02-27T15:58:07.589Z,11.70
2019-02-27T16:00:25.608Z,16.50
2019-02-27T16:02:34.042Z,14.98
2019-02-27T16:04:42.657Z,18.92
2019-02-27T16:06:51.191Z,19.42
2019-02-27T16:08:58.404Z,14.33
2019-02-27T16:11:05.465Z,15.60
2019-02-27T16:13:12.133Z,21.85
2019-02-27T16:15:21.226Z,15.18
2019-02-27T16:19:35.225Z,17.20
2019-02-27T16:21:41.962Z,13.32
2019-02-27T16:23:48.701Z,19.17
2019-02-27T16:25:56.615Z,17.73
2019-02-27T16:28:03.650Z,14.85
2019-02-27T16:30:19.879Z,18.10
2019-02-27T16:32:26.652Z,19.65
2019-02-27T16:34:34.101Z,18.95
2019-02-27T16:36:40.988Z,20.08
2019-02-27T16:38:47.725Z,19.42
2019-02-27T16:40:54.499Z,18.67
2019-02-27T16:43:01.146Z,19.70
2019-02-27T16:45:17.223Z,23.20
2019-02-27T16:47:23.926Z,20.55
2019-02-27T16:49:30.566Z,21.40
2019-02-27T16:51:37.219Z,19.25
2019-02-27T16:53:43.999Z,20.80
2019-02-27T16:55:50.655Z,18.23
2019-02-27T16:57:57.912Z,19.62
2019-02-27T17:00:06.606Z,23.60
2019-02-27T17:02:14.807Z,17.80
2019-02-27T17:04:22.292Z,19.15
2019-02-27T17:06:29.054Z,19.42
2019-02-27T17:08:36.249Z,18.12
2019-02-27T17:10:42.914Z,17.75
2019-02-27T17:12:49.590Z,24.70
2019-02-27T17:14:58.658Z,16.90
2019-02-27T17:17:04.940Z,17.77
2019-02-27T17:19:11.610Z,19.37
2019-02-27T17:21:21.794Z,21.85
2019-02-27T17:23:26.771Z,18.75
2019-02-27T17:25:33.559Z,21.02
2019-02-27T17:27:40.214Z,20.77
2019-02-27T17:29:46.877Z,20.23
2019-02-27T17:31:55.795Z,19.85
2019-02-27T17:34:01.933Z,22.15
2019-02-27T17:36:08.708Z,20.05
2019-02-27T17:38:15.426Z,18.60
2019-02-27T17:40:22.087Z,22.22
2019-02-27T17:42:28.741Z,21.23
2019-02-27T17:44:37.807Z,22.50
2019-02-27T17:46:43.841Z,25.88
2019-02-27T17:48:50.501Z,23.30
2019-02-27T17:50:57.178Z,20.60
2019-02-27T17:53:03.977Z,25.90
2019-02-27T17:55:16.404Z,26.05
2019-02-27T17:57:25.013Z,24.12
2019-02-27T17:59:31.515Z,23.73
2019-02-27T18:01:38.281Z,29.95
2019-02-27T18:03:45.088Z,29.23
2019-02-27T18:05:56.412Z,22.30
2019-02-27T18:08:03.487Z,23.73
2019-02-27T18:10:14.316Z,28.07
2019-02-27T18:12:21.585Z,22.90
2019-02-27T18:14:28.623Z,27.13
2019-02-27T18:16:35.583Z,23.12
2019-02-27T18:18:44.007Z,25.52
2019-02-27T18:20:50.799Z,26.95
2019-02-27T18:22:57.566Z,32.98
2019-02-27T18:25:07.529Z,26.05
2019-02-27T18:27:14.053Z,22.62
2019-02-27T18:29:20.813Z,22.20
2019-02-27T18:31:29.361Z,29.45
2019-02-27T18:33:36.097Z,28.73
2019-02-27T18:35:42.895Z,26.60
2019-02-27T18:37:53.591Z,30.23
2019-02-27T18:42:04.397Z,34.38
2019-02-27T18:44:12.275Z,34.13
2019-02-27T18:46:19.037Z,30.12
2019-02-27T18:48:25.809Z,31.40
2019-02-27T18:50:32.539Z,32.60
2019-02-27T18:52:39.190Z,32.45
2019-02-27T18:54:45.945Z,31.33
2019-02-27T18:56:52.835Z,33.60
2019-02-27T18:58:59.563Z,34.63
2019-02-27T19:01:09.860Z,29.20
2019-02-27T19:03:15.961Z,40.30
2019-02-27T19:05:22.720Z,33.70
2019-02-27T19:07:30.338Z,35.73
2019-02-27T19:09:37.071Z,34.00
2019-02-27T19:11:43.748Z,34.10
2019-02-27T19:13:50.514Z,34.10
2019-02-27T19:15:57.165Z,37.17
2019-02-27T19:18:06.626Z,34.20
2019-02-27T19:20:24.676Z,39.27
2019-02-27T19:22:30.689Z,35.10
2019-02-27T19:24:37.418Z,37.35
2019-02-27T19:26:45.185Z,33.05
2019-02-27T19:28:53.483Z,36.60
2019-02-27T19:31:00.240Z,36.45
2019-02-27T19:33:07.191Z,36.60
2019-02-27T19:35:18.416Z,39.08
2019-02-27T19:37:26.278Z,41.45
2019-02-27T19:39:33.043Z,36.77
2019-02-27T19:41:39.795Z,38.88
2019-02-27T19:43:46.595Z,40.70
2019-02-27T19:45:53.403Z,44.40
2019-02-27T19:48:00.076Z,39.65
2019-02-27T19:50:11.203Z,43.58
2019-02-27T19:52:18.174Z,40.92
2019-02-27T19:54:26.714Z,42.58
2019-02-27T19:56:35.516Z,41.98
2019-02-27T19:58:41.784Z,44.85
2019-02-27T20:00:48.873Z,45.45
2019-02-27T20:02:59.315Z,48.25
2019-02-27T20:05:05.648Z,45.38
2019-02-27T20:07:12.307Z,42.43
2019-02-27T20:09:20.544Z,45.00
2019-02-27T20:11:27.304Z,48.70
2019-02-27T20:13:33.973Z,46.18
2019-02-27T20:15:42.710Z,50.75
2019-02-27T20:17:50.239Z,56.60
2019-02-27T20:19:56.923Z,52.78
2019-02-27T20:22:03.579Z,56.77
2019-02-27T20:24:14.428Z,51.05
2019-02-27T20:26:20.992Z,50.92
2019-02-27T20:28:29.082Z,50.63
2019-02-27T20:30:35.709Z,51.98
2019-02-27T20:32:42.365Z,48.48
2019-02-27T20:34:49.099Z,54.13
2019-02-27T20:36:57.756Z,57.53
2019-02-27T20:39:05.826Z,57.00
2019-02-27T20:41:14.089Z,49.08
2019-02-27T20:43:20.777Z,56.77
2019-02-27T20:45:27.614Z,64.77
2019-02-27T20:47:34.352Z,57.38
2019-02-27T20:49:41.067Z,59.10
2019-02-27T20:51:47.737Z,56.95
2019-02-27T20:53:55.424Z,61.42
2019-02-27T20:56:05.238Z,57.48
2019-02-27T20:58:16.188Z,61.25
2019-02-27T21:00:20.729Z,59.05
2019-02-27T21:02:27.511Z,58.95
2019-02-27T21:04:35.241Z,52.90
2019-02-27T21:06:47.391Z,55.90
2019-02-27T21:08:51.118Z,66.40
2019-02-27T21:10:58.856Z,55.78
2019-02-27T21:13:06.521Z,62.00
2019-02-27T21:15:15.455Z,59.75
2019-02-27T21:17:22.111Z,58.38
2019-02-27T21:19:30.653Z,60.25
2019-02-27T21:21:37.421Z,58.23
2019-02-27T21:23:44.151Z,64.67
2019-02-27T21:25:50.894Z,52.55
2019-02-27T21:27:57.657Z,56.95
2019-02-27T21:30:20.120Z,61.37
2019-02-27T21:32:26.850Z,55.70
2019-02-27T21:34:33.627Z,56.95
2019-02-27T21:36:40.289Z,63.15
2019-02-27T21:38:47.517Z,57.60
2019-02-27T21:40:55.500Z,56.95
2019-02-27T21:43:02.253Z,55.55
2019-02-27T21:45:18.260Z,60.20
2019-02-27T21:47:25.074Z,49.33
2019-02-27T21:49:32.758Z,54.38
2019-02-27T21:51:39.450Z,55.67
2019-02-27T21:53:47.241Z,57.53
2019-02-27T21:55:53.915Z,59.20
2019-02-27T21:58:00.780Z,55.48
2019-02-27T22:00:14.772Z,55.40
2019-02-27T22:02:22.530Z,53.35
2019-02-27T22:04:29.257Z,58.40
2019-02-27T22:06:36.670Z,53.52
2019-02-27T22:08:43.413Z,57.50
2019-02-27T22:10:53.101Z,59.13
2019-02-27T22:12:58.460Z,46.73
2019-02-27T22:15:10.382Z,58.08
2019-02-27T22:17:17.110Z,54.70
2019-02-27T22:19:23.729Z,53.05
2019-02-27T22:21:31.346Z,54.65
2019-02-27T22:23:38.759Z,53.87
2019-02-27T22:25:45.437Z,55.38
2019-02-27T22:27:52.107Z,54.80
2019-02-27T22:30:00.687Z,55.88
2019-02-27T22:32:08.077Z,53.33
2019-02-27T22:34:14.759Z,51.80
2019-02-27T22:36:21.418Z,60.48
2019-02-27T22:38:28.102Z,55.85
2019-02-27T22:40:37.899Z,55.28
2019-02-27T22:42:45.553Z,57.80
2019-02-27T22:44:52.646Z,54.73
2019-02-27T22:46:59.382Z,53.20
2019-02-27T22:49:06.037Z,48.05
2019-02-27T22:51:13.473Z,51.13
2019-02-27T22:53:20.128Z,53.65
2019-02-27T22:55:26.806Z,56.63
2019-02-27T22:57:33.476Z,53.23
2019-02-27T22:59:40.132Z,55.58
2019-02-27T23:01:50.660Z,54.98
2019-02-27T23:03:58.690Z,59.48
2019-02-27T23:06:05.938Z,56.15
2019-02-27T23:08:12.605Z,55.63
2019-02-27T23:10:19.621Z,52.17
2019-02-27T23:12:26.654Z,55.12
2019-02-27T23:14:33.305Z,54.67
2019-02-27T23:16:40.095Z,58.95
2019-02-27T23:18:46.780Z,53.65
2019-02-27T23:20:55.347Z,54.23
2019-02-27T23:23:02.626Z,51.30
2019-02-27T23:25:09.991Z,56.48
2019-02-27T23:27:16.653Z,59.85
2019-02-27T23:29:23.343Z,56.42
2019-02-27T23:31:30.082Z,54.30
2019-02-27T23:33:36.784Z,54.35
2019-02-27T23:35:43.574Z,56.30
2019-02-27T23:37:50.247Z,60.05
2019-02-27T23:39:56.980Z,56.98
2019-02-27T23:42:03.694Z,56.33
2019-02-27T23:44:12.143Z,53.25
2019-02-27T23:46:19.249Z,51.88
2019-02-27T23:48:26.007Z,58.23
2019-02-27T23:50:32.676Z,56.30
2019-02-27T23:52:39.403Z,53.63
2019-02-27T23:54:46.101Z,58.55
2019-02-27T23:56:52.997Z,55.52
2019-02-27T23:59:02.374Z,53.45
